sensor_id;sensor_type;location;lat;lon;timestamp;P1;P2;P0
61592;PMS5003;70568;51.378;-1.342;2023-10-13T00:01:04;0;0;
61592;PMS5003;70568;51.378;-1.342;2023-10-13T00:03:31;0;0;
61592;PMS5003;70568;51.378;-1.342;2023-10-13T00:05:57;0;0;
61592;PMS5003;70568;51.378;-1.342;2023-10-13T00:08:24;0;0;
61592;PMS5003;70568;51.378;-1.342;2023-10-13T00:10:50;0;0;
61592;PMS5003;70568;51.378;-1.342;2023-10-13T00:13:17;0;0;
61592;PMS5003;70568;51.378;-1.342;2023-10-13T00:15:44;0;0;
61592;PMS5003;70568;51.378;-1.342;2023-10-13T00:18:13;0;0;
61592;PMS5003;70568;51.378;-1.342;2023-10-13T00:20:40;0;0;
61592;PMS5003;70568;51.378;-1.342;2023-10-13T00:23:07;0;0;
61592;PMS5003;70568;51.378;-1.342;2023-10-13T00:25:34;0;0;
61592;PMS5003;70568;51.378;-1.342;2023-10-13T00:28:00;0;0;
61592;PMS5003;70568;51.378;-1.342;2023-10-13T00:30:27;0;0;
61592;PMS5003;70568;51.378;-1.342;2023-10-13T00:32:53;0;0;
61592;PMS5003;70568;51.378;-1.342;2023-10-13T00:35:20;0;0;
61592;PMS5003;70568;51.378;-1.342;2023-10-13T00:37:47;0;0;
61592;PMS5003;70568;51.378;-1.342;2023-10-13T00:40:13;0;0;
61592;PMS5003;70568;51.378;-1.342;2023-10-13T00:42:40;0;0;
61592;PMS5003;70568;51.378;-1.342;2023-10-13T00:45:07;0;0;
61592;PMS5003;70568;51.378;-1.342;2023-10-13T00:47:33;1;0;
61592;PMS5003;70568;51.378;-1.342;2023-10-13T00:50:01;0;0;
61592;PMS5003;70568;51.378;-1.342;2023-10-13T00:52:28;0;0;
61592;PMS5003;70568;51.378;-1.342;2023-10-13T00:54:56;1;1;
61592;PMS5003;70568;51.378;-1.342;2023-10-13T00:57:23;2;2;
61592;PMS5003;70568;51.378;-1.342;2023-10-13T00:59:50;2;2;
61592;PMS5003;70568;51.378;-1.342;2023-10-13T01:02:17;4;4;
61592;PMS5003;70568;51.378;-1.342;2023-10-13T01:04:44;3;3;
61592;PMS5003;70568;51.378;-1.342;2023-10-13T01:07:11;3;3;
61592;PMS5003;70568;51.378;-1.342;2023-10-13T01:09:40;6;6;
61592;PMS5003;70568;51.378;-1.342;2023-10-13T01:12:07;11;10;
61592;PMS5003;70568;51.378;-1.342;2023-10-13T01:14:33;7;6;
61592;PMS5003;70568;51.378;-1.342;2023-10-13T01:17:01;6;6;
61592;PMS5003;70568;51.378;-1.342;2023-10-13T01:19:28;7;7;
61592;PMS5003;70568;51.378;-1.342;2023-10-13T01:21:55;7;7;
61592;PMS5003;70568;51.378;-1.342;2023-10-13T01:24:21;7;6;
61592;PMS5003;70568;51.378;-1.342;2023-10-13T01:26:49;8;8;
61592;PMS5003;70568;51.378;-1.342;2023-10-13T01:29:16;9;8;
61592;PMS5003;70568;51.378;-1.342;2023-10-13T01:31:44;10;8;
61592;PMS5003;70568;51.378;-1.342;2023-10-13T01:34:14;10;9;
61592;PMS5003;70568;51.378;-1.342;2023-10-13T01:36:42;7;7;
61592;PMS5003;70568;51.378;-1.342;2023-10-13T01:39:09;12;11;
61592;PMS5003;70568;51.378;-1.342;2023-10-13T01:41:36;12;11;
61592;PMS5003;70568;51.378;-1.342;2023-10-13T01:44:03;10;9;
61592;PMS5003;70568;51.378;-1.342;2023-10-13T01:46:31;11;10;
61592;PMS5003;70568;51.378;-1.342;2023-10-13T01:48:57;10;10;
61592;PMS5003;70568;51.378;-1.342;2023-10-13T01:51:24;12;12;
61592;PMS5003;70568;51.378;-1.342;2023-10-13T01:53:51;9;8;
61592;PMS5003;70568;51.378;-1.342;2023-10-13T01:56:18;11;10;
61592;PMS5003;70568;51.378;-1.342;2023-10-13T01:58:44;10;10;
61592;PMS5003;70568;51.378;-1.342;2023-10-13T02:01:11;13;12;
61592;PMS5003;70568;51.378;-1.342;2023-10-13T02:03:37;13;12;
61592;PMS5003;70568;51.378;-1.342;2023-10-13T02:06:04;12;12;
61592;PMS5003;70568;51.378;-1.342;2023-10-13T02:08:32;11;10;
61592;PMS5003;70568;51.378;-1.342;2023-10-13T02:11:00;16;13;
61592;PMS5003;70568;51.378;-1.342;2023-10-13T02:13:27;14;12;
61592;PMS5003;70568;51.378;-1.342;2023-10-13T02:15:54;13;13;
61592;PMS5003;70568;51.378;-1.342;2023-10-13T02:18:21;11;11;
61592;PMS5003;70568;51.378;-1.342;2023-10-13T02:20:49;13;13;
61592;PMS5003;70568;51.378;-1.342;2023-10-13T02:23:15;11;11;
61592;PMS5003;70568;51.378;-1.342;2023-10-13T02:25:43;18;15;
61592;PMS5003;70568;51.378;-1.342;2023-10-13T02:28:10;18;17;
61592;PMS5003;70568;51.378;-1.342;2023-10-13T02:30:37;18;16;
61592;PMS5003;70568;51.378;-1.342;2023-10-13T02:33:04;20;19;
61592;PMS5003;70568;51.378;-1.342;2023-10-13T02:35:31;19;17;
61592;PMS5003;70568;51.378;-1.342;2023-10-13T02:37:58;19;18;
61592;PMS5003;70568;51.378;-1.342;2023-10-13T02:40:25;21;18;
61592;PMS5003;70568;51.378;-1.342;2023-10-13T02:42:52;21;20;
61592;PMS5003;70568;51.378;-1.342;2023-10-13T02:45:19;20;19;
61592;PMS5003;70568;51.378;-1.342;2023-10-13T02:47:45;22;21;
61592;PMS5003;70568;51.378;-1.342;2023-10-13T02:50:12;24;23;
61592;PMS5003;70568;51.378;-1.342;2023-10-13T02:52:39;22;21;
61592;PMS5003;70568;51.378;-1.342;2023-10-13T02:55:05;20;18;
61592;PMS5003;70568;51.378;-1.342;2023-10-13T02:57:32;17;17;
61592;PMS5003;70568;51.378;-1.342;2023-10-13T02:59:59;22;22;
61592;PMS5003;70568;51.378;-1.342;2023-10-13T03:02:26;19;18;
61592;PMS5003;70568;51.378;-1.342;2023-10-13T03:04:54;22;19;
61592;PMS5003;70568;51.378;-1.342;2023-10-13T03:07:22;22;20;
61592;PMS5003;70568;51.378;-1.342;2023-10-13T03:09:48;22;21;
61592;PMS5003;70568;51.378;-1.342;2023-10-13T03:12:15;18;18;
61592;PMS5003;70568;51.378;-1.342;2023-10-13T03:14:43;19;19;
61592;PMS5003;70568;51.378;-1.342;2023-10-13T03:17:10;20;18;
61592;PMS5003;70568;51.378;-1.342;2023-10-13T03:19:36;23;20;
61592;PMS5003;70568;51.378;-1.342;2023-10-13T03:22:03;24;24;
61592;PMS5003;70568;51.378;-1.342;2023-10-13T03:24:32;16;15;
61592;PMS5003;70568;51.378;-1.342;2023-10-13T03:26:59;19;17;
61592;PMS5003;70568;51.378;-1.342;2023-10-13T03:29:26;22;20;
61592;PMS5003;70568;51.378;-1.342;2023-10-13T03:31:53;20;17;
61592;PMS5003;70568;51.378;-1.342;2023-10-13T03:34:19;19;18;
61592;PMS5003;70568;51.378;-1.342;2023-10-13T03:36:46;22;19;
61592;PMS5003;70568;51.378;-1.342;2023-10-13T03:39:12;19;19;
61592;PMS5003;70568;51.378;-1.342;2023-10-13T03:41:39;18;18;
61592;PMS5003;70568;51.378;-1.342;2023-10-13T03:44:06;19;18;
61592;PMS5003;70568;51.378;-1.342;2023-10-13T03:46:32;23;23;
61592;PMS5003;70568;51.378;-1.342;2023-10-13T03:49:01;18;17;
61592;PMS5003;70568;51.378;-1.342;2023-10-13T03:51:27;16;16;
61592;PMS5003;70568;51.378;-1.342;2023-10-13T03:53:54;19;18;
61592;PMS5003;70568;51.378;-1.342;2023-10-13T03:56:21;18;16;
61592;PMS5003;70568;51.378;-1.342;2023-10-13T03:58:49;20;18;
61592;PMS5003;70568;51.378;-1.342;2023-10-13T04:01:16;24;19;
61592;PMS5003;70568;51.378;-1.342;2023-10-13T04:03:43;20;20;
61592;PMS5003;70568;51.378;-1.342;2023-10-13T04:06:11;22;21;
61592;PMS5003;70568;51.378;-1.342;2023-10-13T04:08:38;18;17;
61592;PMS5003;70568;51.378;-1.342;2023-10-13T04:11:04;18;17;
61592;PMS5003;70568;51.378;-1.342;2023-10-13T04:13:30;23;20;
61592;PMS5003;70568;51.378;-1.342;2023-10-13T04:15:57;25;22;
61592;PMS5003;70568;51.378;-1.342;2023-10-13T04:18:24;21;20;
61592;PMS5003;70568;51.378;-1.342;2023-10-13T04:20:52;28;25;
61592;PMS5003;70568;51.378;-1.342;2023-10-13T04:23:20;19;17;
61592;PMS5003;70568;51.378;-1.342;2023-10-13T04:25:46;20;19;
61592;PMS5003;70568;51.378;-1.342;2023-10-13T04:28:14;18;18;
61592;PMS5003;70568;51.378;-1.342;2023-10-13T04:30:42;21;20;
61592;PMS5003;70568;51.378;-1.342;2023-10-13T04:33:11;18;17;
61592;PMS5003;70568;51.378;-1.342;2023-10-13T04:35:38;16;16;
61592;PMS5003;70568;51.378;-1.342;2023-10-13T04:38:05;24;22;
61592;PMS5003;70568;51.378;-1.342;2023-10-13T04:40:31;18;17;
61592;PMS5003;70568;51.378;-1.342;2023-10-13T04:42:58;24;20;
61592;PMS5003;70568;51.378;-1.342;2023-10-13T04:45:25;21;19;
61592;PMS5003;70568;51.378;-1.342;2023-10-13T04:47:52;24;22;
61592;PMS5003;70568;51.378;-1.342;2023-10-13T04:50:18;19;19;
61592;PMS5003;70568;51.378;-1.342;2023-10-13T04:52:45;23;20;
61592;PMS5003;70568;51.378;-1.342;2023-10-13T04:55:13;26;22;
61592;PMS5003;70568;51.378;-1.342;2023-10-13T04:57:40;19;17;
61592;PMS5003;70568;51.378;-1.342;2023-10-13T05:00:07;23;21;
61592;PMS5003;70568;51.378;-1.342;2023-10-13T05:02:34;22;19;
61592;PMS5003;70568;51.378;-1.342;2023-10-13T05:05:02;21;20;
61592;PMS5003;70568;51.378;-1.342;2023-10-13T05:07:29;22;20;
61592;PMS5003;70568;51.378;-1.342;2023-10-13T05:09:55;19;16;
61592;PMS5003;70568;51.378;-1.342;2023-10-13T05:12:22;19;19;
61592;PMS5003;70568;51.378;-1.342;2023-10-13T05:14:48;20;16;
61592;PMS5003;70568;51.378;-1.342;2023-10-13T05:17:15;21;20;
61592;PMS5003;70568;51.378;-1.342;2023-10-13T05:19:42;18;15;
61592;PMS5003;70568;51.378;-1.342;2023-10-13T05:22:09;22;18;
61592;PMS5003;70568;51.378;-1.342;2023-10-13T05:24:36;16;14;
61592;PMS5003;70568;51.378;-1.342;2023-10-13T05:27:03;17;14;
61592;PMS5003;70568;51.378;-1.342;2023-10-13T05:29:30;22;21;
61592;PMS5003;70568;51.378;-1.342;2023-10-13T05:31:57;18;15;
61592;PMS5003;70568;51.378;-1.342;2023-10-13T05:34:24;24;21;
61592;PMS5003;70568;51.378;-1.342;2023-10-13T05:36:50;17;14;
61592;PMS5003;70568;51.378;-1.342;2023-10-13T05:39:17;23;18;
61592;PMS5003;70568;51.378;-1.342;2023-10-13T05:41:45;18;16;
61592;PMS5003;70568;51.378;-1.342;2023-10-13T05:44:11;29;24;
61592;PMS5003;70568;51.378;-1.342;2023-10-13T05:46:38;21;20;
61592;PMS5003;70568;51.378;-1.342;2023-10-13T05:49:05;19;14;
61592;PMS5003;70568;51.378;-1.342;2023-10-13T05:51:33;17;15;
61592;PMS5003;70568;51.378;-1.342;2023-10-13T05:54:01;20;17;
61592;PMS5003;70568;51.378;-1.342;2023-10-13T05:56:29;24;20;
61592;PMS5003;70568;51.378;-1.342;2023-10-13T05:58:56;11;10;
61592;PMS5003;70568;51.378;-1.342;2023-10-13T06:01:22;22;20;
61592;PMS5003;70568;51.378;-1.342;2023-10-13T06:03:49;18;17;
61592;PMS5003;70568;51.378;-1.342;2023-10-13T06:06:16;25;19;
61592;PMS5003;70568;51.378;-1.342;2023-10-13T06:08:44;23;21;
61592;PMS5003;70568;51.378;-1.342;2023-10-13T06:11:11;20;17;
61592;PMS5003;70568;51.378;-1.342;2023-10-13T06:13:37;20;17;
61592;PMS5003;70568;51.378;-1.342;2023-10-13T06:16:04;24;20;
61592;PMS5003;70568;51.378;-1.342;2023-10-13T06:18:31;16;13;
61592;PMS5003;70568;51.378;-1.342;2023-10-13T06:21:00;15;14;
61592;PMS5003;70568;51.378;-1.342;2023-10-13T06:23:27;18;18;
61592;PMS5003;70568;51.378;-1.342;2023-10-13T06:25:55;16;15;
61592;PMS5003;70568;51.378;-1.342;2023-10-13T06:28:22;15;13;
61592;PMS5003;70568;51.378;-1.342;2023-10-13T06:30:57;14;14;
61592;PMS5003;70568;51.378;-1.342;2023-10-13T06:33:25;16;14;
61592;PMS5003;70568;51.378;-1.342;2023-10-13T06:35:52;18;16;
61592;PMS5003;70568;51.378;-1.342;2023-10-13T06:38:19;17;16;
61592;PMS5003;70568;51.378;-1.342;2023-10-13T06:40:45;24;19;
61592;PMS5003;70568;51.378;-1.342;2023-10-13T06:43:12;16;15;
61592;PMS5003;70568;51.378;-1.342;2023-10-13T06:45:39;15;14;
61592;PMS5003;70568;51.378;-1.342;2023-10-13T06:48:06;13;13;
61592;PMS5003;70568;51.378;-1.342;2023-10-13T06:50:33;14;13;
61592;PMS5003;70568;51.378;-1.342;2023-10-13T06:53:00;14;13;
61592;PMS5003;70568;51.378;-1.342;2023-10-13T06:55:26;18;14;
61592;PMS5003;70568;51.378;-1.342;2023-10-13T06:57:53;21;18;
61592;PMS5003;70568;51.378;-1.342;2023-10-13T07:00:20;15;13;
61592;PMS5003;70568;51.378;-1.342;2023-10-13T07:02:46;16;15;
61592;PMS5003;70568;51.378;-1.342;2023-10-13T07:05:13;21;18;
61592;PMS5003;70568;51.378;-1.342;2023-10-13T07:07:40;16;15;
61592;PMS5003;70568;51.378;-1.342;2023-10-13T07:10:07;17;15;
61592;PMS5003;70568;51.378;-1.342;2023-10-13T07:12:35;19;17;
61592;PMS5003;70568;51.378;-1.342;2023-10-13T07:15:02;22;19;
61592;PMS5003;70568;51.378;-1.342;2023-10-13T07:17:28;15;15;
61592;PMS5003;70568;51.378;-1.342;2023-10-13T07:19:55;17;15;
61592;PMS5003;70568;51.378;-1.342;2023-10-13T07:22:22;13;11;
61592;PMS5003;70568;51.378;-1.342;2023-10-13T07:24:49;10;10;
61592;PMS5003;70568;51.378;-1.342;2023-10-13T07:27:17;12;11;
61592;PMS5003;70568;51.378;-1.342;2023-10-13T07:29:44;13;12;
61592;PMS5003;70568;51.378;-1.342;2023-10-13T07:32:11;15;14;
61592;PMS5003;70568;51.378;-1.342;2023-10-13T07:34:38;12;12;
61592;PMS5003;70568;51.378;-1.342;2023-10-13T07:37:04;9;9;
61592;PMS5003;70568;51.378;-1.342;2023-10-13T07:39:31;10;9;
61592;PMS5003;70568;51.378;-1.342;2023-10-13T07:41:58;13;12;
61592;PMS5003;70568;51.378;-1.342;2023-10-13T07:44:25;9;9;
61592;PMS5003;70568;51.378;-1.342;2023-10-13T07:46:52;9;8;
61592;PMS5003;70568;51.378;-1.342;2023-10-13T07:49:19;10;10;
61592;PMS5003;70568;51.378;-1.342;2023-10-13T07:51:46;9;8;
61592;PMS5003;70568;51.378;-1.342;2023-10-13T07:54:13;11;10;
61592;PMS5003;70568;51.378;-1.342;2023-10-13T07:56:40;9;9;
61592;PMS5003;70568;51.378;-1.342;2023-10-13T07:59:06;12;11;
61592;PMS5003;70568;51.378;-1.342;2023-10-13T08:01:33;10;10;
61592;PMS5003;70568;51.378;-1.342;2023-10-13T08:03:59;10;9;
61592;PMS5003;70568;51.378;-1.342;2023-10-13T08:06:25;10;9;
61592;PMS5003;70568;51.378;-1.342;2023-10-13T08:08:52;10;9;
61592;PMS5003;70568;51.378;-1.342;2023-10-13T08:11:19;10;9;
61592;PMS5003;70568;51.378;-1.342;2023-10-13T08:13:46;10;10;
61592;PMS5003;70568;51.378;-1.342;2023-10-13T08:16:13;10;9;
61592;PMS5003;70568;51.378;-1.342;2023-10-13T08:18:40;16;15;
61592;PMS5003;70568;51.378;-1.342;2023-10-13T08:21:07;10;10;
61592;PMS5003;70568;51.378;-1.342;2023-10-13T08:23:34;13;12;
61592;PMS5003;70568;51.378;-1.342;2023-10-13T08:26:00;11;11;
61592;PMS5003;70568;51.378;-1.342;2023-10-13T08:28:35;14;13;
61592;PMS5003;70568;51.378;-1.342;2023-10-13T08:31:02;17;15;
61592;PMS5003;70568;51.378;-1.342;2023-10-13T08:33:30;17;17;
61592;PMS5003;70568;51.378;-1.342;2023-10-13T08:35:56;13;13;
61592;PMS5003;70568;51.378;-1.342;2023-10-13T08:38:23;19;17;
61592;PMS5003;70568;51.378;-1.342;2023-10-13T08:40:51;23;21;
61592;PMS5003;70568;51.378;-1.342;2023-10-13T08:43:17;24;21;
61592;PMS5003;70568;51.378;-1.342;2023-10-13T08:45:45;17;16;
61592;PMS5003;70568;51.378;-1.342;2023-10-13T08:48:12;17;16;
61592;PMS5003;70568;51.378;-1.342;2023-10-13T08:50:44;19;16;
61592;PMS5003;70568;51.378;-1.342;2023-10-13T08:53:13;22;20;
61592;PMS5003;70568;51.378;-1.342;2023-10-13T08:55:42;16;15;
61592;PMS5003;70568;51.378;-1.342;2023-10-13T08:58:09;19;18;
61592;PMS5003;70568;51.378;-1.342;2023-10-13T09:00:35;18;16;
61592;PMS5003;70568;51.378;-1.342;2023-10-13T09:03:04;15;14;
61592;PMS5003;70568;51.378;-1.342;2023-10-13T09:05:33;18;15;
61592;PMS5003;70568;51.378;-1.342;2023-10-13T09:08:00;17;15;
61592;PMS5003;70568;51.378;-1.342;2023-10-13T09:10:27;15;15;
61592;PMS5003;70568;51.378;-1.342;2023-10-13T09:12:54;24;21;
61592;PMS5003;70568;51.378;-1.342;2023-10-13T09:15:27;17;16;
61592;PMS5003;70568;51.378;-1.342;2023-10-13T09:17:55;17;15;
61592;PMS5003;70568;51.378;-1.342;2023-10-13T09:20:29;20;18;
61592;PMS5003;70568;51.378;-1.342;2023-10-13T09:22:57;20;19;
61592;PMS5003;70568;51.378;-1.342;2023-10-13T09:25:24;19;18;
61592;PMS5003;70568;51.378;-1.342;2023-10-13T09:27:51;20;17;
61592;PMS5003;70568;51.378;-1.342;2023-10-13T09:30:18;24;21;
61592;PMS5003;70568;51.378;-1.342;2023-10-13T09:32:45;23;23;
61592;PMS5003;70568;51.378;-1.342;2023-10-13T09:35:12;21;20;
61592;PMS5003;70568;51.378;-1.342;2023-10-13T09:37:43;18;16;
61592;PMS5003;70568;51.378;-1.342;2023-10-13T09:40:13;23;21;
61592;PMS5003;70568;51.378;-1.342;2023-10-13T09:42:42;20;18;
61592;PMS5003;70568;51.378;-1.342;2023-10-13T09:45:10;24;22;
61592;PMS5003;70568;51.378;-1.342;2023-10-13T09:47:36;20;18;
61592;PMS5003;70568;51.378;-1.342;2023-10-13T09:50:03;15;15;
61592;PMS5003;70568;51.378;-1.342;2023-10-13T09:52:34;26;23;
61592;PMS5003;70568;51.378;-1.342;2023-10-13T09:55:04;15;15;
61592;PMS5003;70568;51.378;-1.342;2023-10-13T09:57:41;20;18;
61592;PMS5003;70568;51.378;-1.342;2023-10-13T10:00:15;22;21;
61592;PMS5003;70568;51.378;-1.342;2023-10-13T10:02:45;22;19;
61592;PMS5003;70568;51.378;-1.342;2023-10-13T10:05:12;19;17;
61592;PMS5003;70568;51.378;-1.342;2023-10-13T10:07:39;16;15;
61592;PMS5003;70568;51.378;-1.342;2023-10-13T10:10:07;16;15;
61592;PMS5003;70568;51.378;-1.342;2023-10-13T10:12:37;13;11;
61592;PMS5003;70568;51.378;-1.342;2023-10-13T10:15:20;18;16;
61592;PMS5003;70568;51.378;-1.342;2023-10-13T10:17:53;18;18;
61592;PMS5003;70568;51.378;-1.342;2023-10-13T10:20:27;12;11;
61592;PMS5003;70568;51.378;-1.342;2023-10-13T10:22:55;14;13;
61592;PMS5003;70568;51.378;-1.342;2023-10-13T10:25:28;14;14;
61592;PMS5003;70568;51.378;-1.342;2023-10-13T10:27:56;19;18;
61592;PMS5003;70568;51.378;-1.342;2023-10-13T10:30:24;20;16;
61592;PMS5003;70568;51.378;-1.342;2023-10-13T10:32:54;16;16;
61592;PMS5003;70568;51.378;-1.342;2023-10-13T10:35:22;14;14;
61592;PMS5003;70568;51.378;-1.342;2023-10-13T10:37:49;15;15;
61592;PMS5003;70568;51.378;-1.342;2023-10-13T10:40:17;15;15;
61592;PMS5003;70568;51.378;-1.342;2023-10-13T10:42:47;16;12;
61592;PMS5003;70568;51.378;-1.342;2023-10-13T10:45:17;12;12;
61592;PMS5003;70568;51.378;-1.342;2023-10-13T10:47:47;15;14;
61592;PMS5003;70568;51.378;-1.342;2023-10-13T10:50:24;14;11;
61592;PMS5003;70568;51.378;-1.342;2023-10-13T10:52:51;14;13;
61592;PMS5003;70568;51.378;-1.342;2023-10-13T10:55:19;16;15;
61592;PMS5003;70568;51.378;-1.342;2023-10-13T10:57:45;13;12;
61592;PMS5003;70568;51.378;-1.342;2023-10-13T11:00:18;11;9;
61592;PMS5003;70568;51.378;-1.342;2023-10-13T11:02:52;11;10;
61592;PMS5003;70568;51.378;-1.342;2023-10-13T11:05:19;13;13;
61592;PMS5003;70568;51.378;-1.342;2023-10-13T11:07:46;12;11;
61592;PMS5003;70568;51.378;-1.342;2023-10-13T11:10:13;11;10;
61592;PMS5003;70568;51.378;-1.342;2023-10-13T11:12:40;10;10;
61592;PMS5003;70568;51.378;-1.342;2023-10-13T11:15:07;13;11;
61592;PMS5003;70568;51.378;-1.342;2023-10-13T11:17:34;13;12;
61592;PMS5003;70568;51.378;-1.342;2023-10-13T11:20:07;16;12;
61592;PMS5003;70568;51.378;-1.342;2023-10-13T11:22:36;14;14;
61592;PMS5003;70568;51.378;-1.342;2023-10-13T11:25:04;13;13;
61592;PMS5003;70568;51.378;-1.342;2023-10-13T11:27:32;14;12;
61592;PMS5003;70568;51.378;-1.342;2023-10-13T11:29:59;9;9;
61592;PMS5003;70568;51.378;-1.342;2023-10-13T11:32:25;14;12;
61592;PMS5003;70568;51.378;-1.342;2023-10-13T11:34:52;14;10;
61592;PMS5003;70568;51.378;-1.342;2023-10-13T11:37:18;13;11;
61592;PMS5003;70568;51.378;-1.342;2023-10-13T11:39:45;13;11;
61592;PMS5003;70568;51.378;-1.342;2023-10-13T11:42:11;9;8;
61592;PMS5003;70568;51.378;-1.342;2023-10-13T11:44:38;9;9;
61592;PMS5003;70568;51.378;-1.342;2023-10-13T11:47:05;13;12;
61592;PMS5003;70568;51.378;-1.342;2023-10-13T11:49:32;10;9;
61592;PMS5003;70568;51.378;-1.342;2023-10-13T11:51:59;9;9;
61592;PMS5003;70568;51.378;-1.342;2023-10-13T11:54:26;13;12;
61592;PMS5003;70568;51.378;-1.342;2023-10-13T11:56:53;8;8;
61592;PMS5003;70568;51.378;-1.342;2023-10-13T11:59:19;8;8;
61592;PMS5003;70568;51.378;-1.342;2023-10-13T12:01:46;9;7;
61592;PMS5003;70568;51.378;-1.342;2023-10-13T12:04:12;7;6;
61592;PMS5003;70568;51.378;-1.342;2023-10-13T12:06:39;9;6;
61592;PMS5003;70568;51.378;-1.342;2023-10-13T12:09:06;6;5;
61592;PMS5003;70568;51.378;-1.342;2023-10-13T12:11:35;8;7;
61592;PMS5003;70568;51.378;-1.342;2023-10-13T12:14:01;10;8;
61592;PMS5003;70568;51.378;-1.342;2023-10-13T12:16:28;7;5;
61592;PMS5003;70568;51.378;-1.342;2023-10-13T12:18:55;8;6;
61592;PMS5003;70568;51.378;-1.342;2023-10-13T12:21:22;8;6;
61592;PMS5003;70568;51.378;-1.342;2023-10-13T12:23:49;7;6;
61592;PMS5003;70568;51.378;-1.342;2023-10-13T12:26:15;6;5;
61592;PMS5003;70568;51.378;-1.342;2023-10-13T12:28:42;5;5;
61592;PMS5003;70568;51.378;-1.342;2023-10-13T12:31:09;7;7;
61592;PMS5003;70568;51.378;-1.342;2023-10-13T12:33:36;11;9;
61592;PMS5003;70568;51.378;-1.342;2023-10-13T12:36:03;10;8;
61592;PMS5003;70568;51.378;-1.342;2023-10-13T12:38:30;8;7;
61592;PMS5003;70568;51.378;-1.342;2023-10-13T12:40:57;5;4;
61592;PMS5003;70568;51.378;-1.342;2023-10-13T12:43:24;7;4;
61592;PMS5003;70568;51.378;-1.342;2023-10-13T12:45:51;5;5;
61592;PMS5003;70568;51.378;-1.342;2023-10-13T12:48:18;4;2;
61592;PMS5003;70568;51.378;-1.342;2023-10-13T12:50:45;7;6;
61592;PMS5003;70568;51.378;-1.342;2023-10-13T12:53:11;5;3;
61592;PMS5003;70568;51.378;-1.342;2023-10-13T12:55:39;5;4;
61592;PMS5003;70568;51.378;-1.342;2023-10-13T12:58:06;4;3;
61592;PMS5003;70568;51.378;-1.342;2023-10-13T13:00:32;4;2;
61592;PMS5003;70568;51.378;-1.342;2023-10-13T13:02:59;4;3;
61592;PMS5003;70568;51.378;-1.342;2023-10-13T13:05:27;2;2;
61592;PMS5003;70568;51.378;-1.342;2023-10-13T13:07:53;2;1;
61592;PMS5003;70568;51.378;-1.342;2023-10-13T13:10:20;3;2;
61592;PMS5003;70568;51.378;-1.342;2023-10-13T13:12:47;6;4;
61592;PMS5003;70568;51.378;-1.342;2023-10-13T13:15:14;5;3;
61592;PMS5003;70568;51.378;-1.342;2023-10-13T13:17:40;7;4;
61592;PMS5003;70568;51.378;-1.342;2023-10-13T13:20:07;3;2;
61592;PMS5003;70568;51.378;-1.342;2023-10-13T13:22:35;3;3;
61592;PMS5003;70568;51.378;-1.342;2023-10-13T13:25:01;4;2;
61592;PMS5003;70568;51.378;-1.342;2023-10-13T13:27:28;4;2;
61592;PMS5003;70568;51.378;-1.342;2023-10-13T13:29:54;2;2;
61592;PMS5003;70568;51.378;-1.342;2023-10-13T13:32:21;4;4;
61592;PMS5003;70568;51.378;-1.342;2023-10-13T13:34:48;5;4;
61592;PMS5003;70568;51.378;-1.342;2023-10-13T13:37:15;4;3;
61592;PMS5003;70568;51.378;-1.342;2023-10-13T13:39:42;6;5;
61592;PMS5003;70568;51.378;-1.342;2023-10-13T13:42:10;4;3;
61592;PMS5003;70568;51.378;-1.342;2023-10-13T13:44:37;7;5;
61592;PMS5003;70568;51.378;-1.342;2023-10-13T13:47:04;4;2;
61592;PMS5003;70568;51.378;-1.342;2023-10-13T13:49:31;4;2;
61592;PMS5003;70568;51.378;-1.342;2023-10-13T13:51:57;7;7;
61592;PMS5003;70568;51.378;-1.342;2023-10-13T13:54:24;2;2;
61592;PMS5003;70568;51.378;-1.342;2023-10-13T13:56:51;9;6;
61592;PMS5003;70568;51.378;-1.342;2023-10-13T13:59:18;6;4;
61592;PMS5003;70568;51.378;-1.342;2023-10-13T14:01:45;5;3;
61592;PMS5003;70568;51.378;-1.342;2023-10-13T14:04:11;3;3;
61592;PMS5003;70568;51.378;-1.342;2023-10-13T14:06:38;5;5;
61592;PMS5003;70568;51.378;-1.342;2023-10-13T14:09:05;5;4;
61592;PMS5003;70568;51.378;-1.342;2023-10-13T14:11:32;4;3;
61592;PMS5003;70568;51.378;-1.342;2023-10-13T14:13:59;4;4;
61592;PMS5003;70568;51.378;-1.342;2023-10-13T14:16:26;3;2;
61592;PMS5003;70568;51.378;-1.342;2023-10-13T14:18:53;5;4;
61592;PMS5003;70568;51.378;-1.342;2023-10-13T14:21:19;4;3;
61592;PMS5003;70568;51.378;-1.342;2023-10-13T14:23:46;4;4;
61592;PMS5003;70568;51.378;-1.342;2023-10-13T14:26:14;3;2;
61592;PMS5003;70568;51.378;-1.342;2023-10-13T14:28:43;5;2;
61592;PMS5003;70568;51.378;-1.342;2023-10-13T14:31:10;6;4;
61592;PMS5003;70568;51.378;-1.342;2023-10-13T14:33:36;1;1;
61592;PMS5003;70568;51.378;-1.342;2023-10-13T14:36:03;1;1;
61592;PMS5003;70568;51.378;-1.342;2023-10-13T14:38:30;4;2;
61592;PMS5003;70568;51.378;-1.342;2023-10-13T14:40:57;1;1;
61592;PMS5003;70568;51.378;-1.342;2023-10-13T14:43:24;3;1;
61592;PMS5003;70568;51.378;-1.342;2023-10-13T14:45:50;0;0;
61592;PMS5003;70568;51.378;-1.342;2023-10-13T14:48:16;2;2;
61592;PMS5003;70568;51.378;-1.342;2023-10-13T14:50:43;0;0;
61592;PMS5003;70568;51.378;-1.342;2023-10-13T14:53:10;3;3;
61592;PMS5003;70568;51.378;-1.342;2023-10-13T14:55:37;1;1;
61592;PMS5003;70568;51.378;-1.342;2023-10-13T14:58:04;2;2;
61592;PMS5003;70568;51.378;-1.342;2023-10-13T15:00:32;3;2;
61592;PMS5003;70568;51.378;-1.342;2023-10-13T15:02:59;5;2;
61592;PMS5003;70568;51.378;-1.342;2023-10-13T15:05:26;4;3;
61592;PMS5003;70568;51.378;-1.342;2023-10-13T15:07:53;2;1;
61592;PMS5003;70568;51.378;-1.342;2023-10-13T15:10:19;5;4;
61592;PMS5003;70568;51.378;-1.342;2023-10-13T15:12:45;2;2;
61592;PMS5003;70568;51.378;-1.342;2023-10-13T15:15:12;3;3;
61592;PMS5003;70568;51.378;-1.342;2023-10-13T15:17:39;4;4;
61592;PMS5003;70568;51.378;-1.342;2023-10-13T15:20:07;1;1;
61592;PMS5003;70568;51.378;-1.342;2023-10-13T15:22:34;2;2;
61592;PMS5003;70568;51.378;-1.342;2023-10-13T15:25:00;1;1;
61592;PMS5003;70568;51.378;-1.342;2023-10-13T15:27:27;3;2;
61592;PMS5003;70568;51.378;-1.342;2023-10-13T15:29:53;2;2;
61592;PMS5003;70568;51.378;-1.342;2023-10-13T15:32:19;3;3;
61592;PMS5003;70568;51.378;-1.342;2023-10-13T15:34:46;3;2;
61592;PMS5003;70568;51.378;-1.342;2023-10-13T15:37:13;4;4;
61592;PMS5003;70568;51.378;-1.342;2023-10-13T15:39:39;6;4;
61592;PMS5003;70568;51.378;-1.342;2023-10-13T15:42:06;4;1;
61592;PMS5003;70568;51.378;-1.342;2023-10-13T15:44:33;0;0;
61592;PMS5003;70568;51.378;-1.342;2023-10-13T15:47:00;2;2;
61592;PMS5003;70568;51.378;-1.342;2023-10-13T15:49:27;2;2;
61592;PMS5003;70568;51.378;-1.342;2023-10-13T15:51:56;1;1;
61592;PMS5003;70568;51.378;-1.342;2023-10-13T15:54:24;2;1;
61592;PMS5003;70568;51.378;-1.342;2023-10-13T15:56:50;3;2;
61592;PMS5003;70568;51.378;-1.342;2023-10-13T15:59:17;2;2;
61592;PMS5003;70568;51.378;-1.342;2023-10-13T16:01:44;2;2;
61592;PMS5003;70568;51.378;-1.342;2023-10-13T16:04:12;1;1;
61592;PMS5003;70568;51.378;-1.342;2023-10-13T16:06:38;1;1;
61592;PMS5003;70568;51.378;-1.342;2023-10-13T16:09:05;3;2;
61592;PMS5003;70568;51.378;-1.342;2023-10-13T16:11:33;2;1;
61592;PMS5003;70568;51.378;-1.342;2023-10-13T16:13:59;0;0;